createdAt,value
2023-02-19T00:01:49.850Z,16.94
2023-02-19T00:04:19.871Z,16.94
2023-02-19T00:06:48.693Z,16.92
2023-02-19T00:09:18.150Z,16.95
2023-02-19T00:11:48.750Z,16.94
2023-02-19T00:14:21.272Z,16.90
2023-02-19T00:16:50.848Z,16.86
2023-02-19T00:19:20.793Z,16.82
2023-02-19T00:21:53.351Z,16.82
2023-02-19T00:24:22.154Z,16.75
2023-02-19T00:26:50.363Z,16.63
2023-02-19T00:29:20.366Z,16.59
2023-02-19T00:31:51.301Z,16.60
2023-02-19T00:34:19.003Z,16.55
2023-02-19T00:36:49.926Z,16.48
2023-02-19T00:39:21.529Z,16.39
2023-02-19T00:41:48.700Z,16.46
2023-02-19T00:44:15.891Z,16.44
2023-02-19T00:46:49.946Z,16.42
2023-02-19T00:49:21.843Z,16.32
2023-02-19T00:51:51.253Z,16.22
2023-02-19T00:54:21.073Z,16.13
2023-02-19T00:56:48.202Z,16.08
2023-02-19T00:59:16.419Z,16.08
2023-02-19T01:01:47.383Z,16.06
2023-02-19T01:04:14.541Z,16.06
2023-02-19T01:06:43.741Z,16.16
2023-02-19T01:09:13.160Z,16.14
2023-02-19T01:11:42.685Z,16.19
2023-02-19T01:14:11.015Z,16.15
2023-02-19T01:16:40.719Z,16.14
2023-02-19T01:19:07.917Z,16.23
2023-02-19T01:21:35.115Z,16.20
2023-02-19T01:24:04.421Z,16.20
2023-02-19T01:26:33.374Z,16.15
2023-02-19T01:29:03.904Z,16.13
2023-02-19T01:31:33.721Z,16.16
2023-02-19T01:34:02.898Z,16.12
2023-02-19T01:36:33.956Z,16.11
2023-02-19T01:39:04.328Z,16.06
2023-02-19T01:41:35.802Z,16.06
2023-02-19T01:44:06.555Z,16.05
2023-02-19T01:46:35.457Z,15.99
2023-02-19T01:49:08.837Z,15.91
2023-02-19T01:51:41.038Z,15.77
2023-02-19T01:54:14.256Z,15.68
2023-02-19T01:56:44.976Z,15.63
2023-02-19T01:59:13.982Z,15.53
2023-02-19T02:01:42.426Z,15.46
2023-02-19T02:04:15.779Z,15.61
2023-02-19T02:06:50.399Z,15.61
2023-02-19T02:09:21.227Z,15.58
2023-02-19T02:11:51.580Z,15.46
2023-02-19T02:14:26.010Z,15.45
2023-02-19T02:17:01.960Z,15.65
2023-02-19T02:20:00.002Z,16.23
2023-02-19T02:22:35.681Z,16.32
2023-02-19T02:25:35.802Z,16.59
2023-02-19T02:28:23.440Z,16.67
2023-02-19T02:30:56.503Z,16.94
2023-02-19T02:33:33.696Z,17.13
2023-02-19T02:36:07.258Z,17.21
2023-02-19T02:38:40.621Z,17.20
2023-02-19T02:41:09.792Z,17.29
2023-02-19T02:43:37.123Z,17.33
2023-02-19T02:46:06.539Z,17.31
2023-02-19T02:48:44.062Z,17.26
2023-02-19T02:51:19.261Z,17.26
2023-02-19T02:53:52.257Z,17.26
2023-02-19T02:56:21.020Z,17.27
2023-02-19T02:58:51.439Z,17.31
2023-02-19T03:01:25.628Z,17.25
2023-02-19T03:04:00.144Z,17.24
2023-02-19T03:06:32.299Z,17.30
2023-02-19T03:09:09.398Z,17.38
2023-02-19T03:11:41.898Z,17.29
2023-02-19T03:14:16.560Z,17.37
2023-02-19T03:16:48.739Z,17.36
2023-02-19T03:19:20.499Z,17.41
2023-02-19T03:21:55.774Z,17.36
2023-02-19T03:24:29.094Z,17.33
2023-02-19T03:26:59.554Z,17.18
2023-02-19T03:29:32.095Z,17.23
2023-02-19T03:32:07.026Z,17.21
2023-02-19T03:34:41.599Z,17.28
2023-02-19T03:37:15.991Z,17.21
2023-02-19T03:39:44.126Z,17.14
2023-02-19T03:42:23.628Z,17.22
2023-02-19T03:45:07.244Z,17.27
2023-02-19T03:47:48.565Z,17.23
2023-02-19T03:50:22.189Z,17.17
2023-02-19T03:52:59.171Z,17.03
2023-02-19T03:55:32.409Z,17.04
2023-02-19T03:58:09.112Z,16.96
2023-02-19T04:00:43.196Z,16.96
2023-02-19T04:03:20.293Z,17.05
2023-02-19T04:05:53.761Z,17.00
2023-02-19T04:08:24.657Z,16.98
2023-02-19T04:10:55.438Z,16.93
2023-02-19T04:13:29.345Z,17.02
2023-02-19T04:16:02.073Z,17.03
2023-02-19T04:18:36.410Z,17.15
2023-02-19T04:21:07.214Z,17.20
2023-02-19T04:23:40.636Z,17.17
2023-02-19T04:26:11.476Z,17.12
2023-02-19T04:28:39.799Z,17.16
2023-02-19T04:31:07.694Z,17.29
2023-02-19T04:33:37.366Z,17.29
2023-02-19T04:36:05.242Z,17.23
2023-02-19T04:38:32.464Z,17.22
2023-02-19T04:40:59.774Z,17.17
2023-02-19T04:43:27.108Z,16.97
2023-02-19T04:45:54.319Z,17.06
2023-02-19T04:48:21.455Z,17.11
2023-02-19T04:50:50.028Z,17.06
2023-02-19T04:53:17.187Z,17.09
2023-02-19T04:55:44.404Z,17.04
2023-02-19T04:58:11.649Z,17.01
2023-02-19T05:00:39.052Z,17.01
2023-02-19T05:03:06.333Z,17.10
2023-02-19T05:05:34.814Z,17.11
2023-02-19T05:08:03.588Z,17.09
2023-02-19T05:10:30.948Z,17.19
2023-02-19T05:12:58.229Z,17.24
2023-02-19T05:15:25.452Z,17.26
2023-02-19T05:17:52.697Z,17.32
2023-02-19T05:20:20.054Z,17.45
2023-02-19T05:22:47.313Z,17.50
2023-02-19T05:25:16.356Z,17.39
2023-02-19T05:27:44.206Z,17.21
2023-02-19T05:30:12.331Z,16.98
2023-02-19T05:32:39.611Z,17.20
2023-02-19T05:35:07.347Z,17.15
2023-02-19T05:37:34.454Z,17.02
2023-02-19T05:40:01.674Z,17.00
2023-02-19T05:42:30.222Z,16.86
2023-02-19T05:44:57.517Z,16.89
2023-02-19T05:47:24.849Z,16.87
2023-02-19T05:49:52.048Z,16.98
2023-02-19T05:52:19.147Z,17.00
2023-02-19T05:54:46.290Z,16.94
2023-02-19T05:57:13.530Z,16.92
2023-02-19T05:59:42.403Z,16.93
2023-02-19T06:02:10.140Z,16.91
2023-02-19T06:04:37.563Z,16.87
2023-02-19T06:07:04.811Z,16.90
2023-02-19T06:09:32.072Z,16.87
2023-02-19T06:11:59.195Z,16.92
2023-02-19T06:14:26.408Z,16.75
2023-02-19T06:16:54.964Z,16.69
2023-02-19T06:19:22.121Z,16.60
2023-02-19T06:21:50.984Z,16.61
2023-02-19T06:24:18.295Z,16.64
2023-02-19T06:26:45.512Z,16.62
2023-02-19T06:29:12.700Z,16.80
2023-02-19T06:31:40.158Z,16.77
2023-02-19T06:34:09.036Z,16.76
2023-02-19T06:36:36.558Z,16.69
2023-02-19T06:39:05.604Z,16.76
2023-02-19T06:41:33.922Z,16.74
2023-02-19T06:44:02.083Z,16.74
2023-02-19T06:46:29.367Z,16.74
2023-02-19T06:48:56.572Z,16.79
2023-02-19T06:51:25.280Z,16.78
2023-02-19T06:53:52.570Z,16.72
2023-02-19T06:56:25.449Z,16.71
2023-02-19T06:58:53.607Z,16.73
2023-02-19T07:01:20.845Z,16.77
2023-02-19T07:03:48.287Z,16.78
2023-02-19T07:06:15.656Z,16.83
2023-02-19T07:08:44.445Z,16.93
2023-02-19T07:11:12.385Z,16.90
2023-02-19T07:13:39.736Z,16.99
2023-02-19T07:16:08.967Z,17.05
2023-02-19T07:18:36.153Z,17.14
2023-02-19T07:21:05.321Z,17.28
2023-02-19T07:23:32.687Z,17.44
2023-02-19T07:26:02.097Z,17.51
2023-02-19T07:28:29.559Z,17.59
2023-02-19T07:31:01.733Z,17.65
2023-02-19T07:33:29.054Z,17.70
2023-02-19T07:35:56.808Z,17.77
2023-02-19T07:38:25.752Z,17.70
2023-02-19T07:40:54.409Z,17.89
2023-02-19T07:43:24.198Z,17.93
2023-02-19T07:45:52.245Z,17.97
2023-02-19T07:48:19.836Z,17.94
2023-02-19T07:50:52.387Z,18.02
2023-02-19T07:53:20.106Z,17.92
2023-02-19T07:55:47.627Z,18.03
2023-02-19T07:58:15.380Z,18.04
2023-02-19T08:00:44.591Z,18.07
2023-02-19T08:03:12.399Z,18.09
2023-02-19T08:05:41.857Z,18.04
2023-02-19T08:08:11.148Z,18.08
2023-02-19T08:10:38.246Z,18.13
2023-02-19T08:13:05.357Z,18.15
2023-02-19T08:15:33.784Z,18.20
2023-02-19T08:18:02.485Z,18.25
2023-02-19T08:20:29.669Z,18.24
2023-02-19T08:22:56.903Z,18.20
2023-02-19T08:25:24.026Z,18.37
2023-02-19T08:27:51.198Z,18.42
2023-02-19T08:30:18.583Z,18.47
2023-02-19T08:32:45.748Z,18.54
2023-02-19T08:35:14.465Z,18.34
2023-02-19T08:37:41.626Z,18.33
2023-02-19T08:40:10.031Z,18.60
2023-02-19T08:42:37.191Z,18.88
2023-02-19T08:45:05.898Z,18.92
2023-02-19T08:47:35.586Z,19.55
2023-02-19T08:50:02.956Z,19.69
2023-02-19T08:52:32.074Z,19.95
2023-02-19T08:54:59.270Z,20.65
2023-02-19T08:57:27.350Z,21.12
2023-02-19T08:59:54.524Z,21.24
2023-02-19T09:02:21.866Z,21.18
2023-02-19T09:04:49.026Z,21.10
2023-02-19T09:07:17.367Z,20.83
2023-02-19T09:09:46.104Z,20.82
2023-02-19T09:12:14.203Z,20.71
2023-02-19T09:14:42.069Z,20.58
2023-02-19T09:17:10.058Z,20.47
2023-02-19T09:19:37.597Z,20.39
2023-02-19T09:22:05.864Z,20.89
2023-02-19T09:24:33.148Z,21.02
2023-02-19T09:27:01.867Z,21.20
2023-02-19T09:29:29.630Z,21.35
2023-02-19T09:31:58.189Z,21.66
2023-02-19T09:34:26.880Z,22.13
2023-02-19T09:36:54.101Z,22.18
2023-02-19T09:39:21.455Z,22.13
2023-02-19T09:41:52.848Z,22.06
2023-02-19T09:44:28.447Z,22.22
2023-02-19T09:46:57.182Z,22.26
2023-02-19T09:49:32.329Z,22.49
2023-02-19T09:52:07.992Z,22.58
2023-02-19T09:54:38.341Z,22.79
2023-02-19T09:57:14.254Z,22.88
2023-02-19T09:59:49.095Z,23.17
2023-02-19T10:02:18.554Z,23.29
2023-02-19T10:04:48.119Z,23.21
2023-02-19T10:07:18.212Z,23.34
2023-02-19T10:09:48.732Z,23.20
2023-02-19T10:12:19.658Z,23.57
2023-02-19T10:14:52.855Z,23.60
2023-02-19T10:17:27.055Z,23.69
2023-02-19T10:19:54.794Z,23.53
2023-02-19T10:22:22.000Z,23.32
2023-02-19T10:24:53.343Z,23.41
2023-02-19T10:27:20.705Z,22.95
2023-02-19T10:29:50.212Z,22.81
2023-02-19T10:32:20.855Z,22.58
2023-02-19T10:34:48.149Z,22.96
2023-02-19T10:37:18.644Z,22.72
2023-02-19T10:39:49.757Z,22.82
2023-02-19T10:42:22.865Z,23.14
2023-02-19T10:44:56.549Z,23.40
2023-02-19T10:47:27.241Z,23.38
2023-02-19T10:49:59.446Z,23.45
2023-02-19T10:52:30.820Z,23.73
2023-02-19T10:55:15.636Z,23.60
2023-02-19T10:57:43.332Z,23.80
2023-02-19T11:00:24.546Z,23.55
2023-02-19T11:03:19.017Z,23.28
2023-02-19T11:06:00.159Z,23.20
2023-02-19T11:08:28.174Z,23.21
2023-02-19T11:10:55.755Z,23.24
2023-02-19T11:13:30.008Z,23.30
2023-02-19T11:16:00.503Z,23.66
2023-02-19T11:18:31.025Z,23.59
2023-02-19T11:21:01.936Z,23.39
2023-02-19T11:23:32.647Z,23.41
2023-02-19T11:26:04.307Z,23.47
2023-02-19T11:28:35.288Z,23.51
2023-02-19T11:31:26.313Z,23.74
2023-02-19T11:33:58.952Z,23.67
2023-02-19T11:36:31.909Z,23.51
2023-02-19T11:39:20.527Z,23.58
2023-02-19T11:42:10.560Z,23.61
2023-02-19T11:44:52.631Z,23.60
2023-02-19T11:47:52.048Z,23.27
2023-02-19T11:50:27.388Z,23.01
2023-02-19T11:53:14.456Z,23.14
2023-02-19T11:55:57.535Z,22.76
2023-02-19T11:58:49.190Z,22.55
2023-02-19T12:01:27.352Z,22.56
2023-02-19T12:04:20.171Z,22.35
2023-02-19T12:07:03.369Z,22.14
2023-02-19T12:09:43.721Z,21.93
2023-02-19T12:12:42.101Z,22.42
2023-02-19T12:18:50.170Z,23.04
2023-02-19T12:21:58.372Z,21.99
2023-02-19T12:24:51.240Z,22.43
2023-02-19T12:27:36.443Z,22.29
2023-02-19T12:30:25.652Z,22.59
2023-02-19T12:33:15.649Z,22.59
2023-02-19T12:35:52.508Z,21.91
2023-02-19T12:38:27.290Z,22.29
2023-02-19T12:41:18.524Z,22.57
2023-02-19T12:43:54.747Z,22.56
2023-02-19T12:46:29.769Z,22.37
2023-02-19T12:49:05.301Z,22.20
2023-02-19T12:51:39.995Z,22.09
2023-02-19T12:54:15.310Z,22.53
2023-02-19T12:56:52.616Z,22.14
2023-02-19T12:59:29.218Z,22.60
2023-02-19T13:02:06.229Z,22.51
2023-02-19T13:04:43.518Z,22.68
2023-02-19T13:07:17.706Z,22.37
2023-02-19T13:09:50.815Z,22.09
2023-02-19T13:12:25.077Z,22.23
2023-02-19T13:14:58.097Z,22.28
2023-02-19T13:17:32.284Z,22.32
2023-02-19T13:20:13.819Z,21.82
2023-02-19T13:22:50.750Z,22.07
2023-02-19T13:25:21.276Z,22.22
2023-02-19T13:28:20.477Z,22.46
2023-02-19T13:31:25.246Z,22.34
2023-02-19T13:34:07.482Z,22.21
2023-02-19T13:36:37.216Z,22.43
2023-02-19T13:39:06.733Z,22.44
2023-02-19T13:41:41.174Z,22.11
2023-02-19T13:44:21.406Z,21.88
2023-02-19T13:46:50.934Z,21.93
2023-02-19T13:49:37.860Z,22.07
2023-02-19T13:52:46.887Z,22.00
2023-02-19T13:55:50.272Z,22.03
2023-02-19T13:58:58.649Z,22.00
2023-02-19T14:02:13.141Z,22.07
2023-02-19T14:05:00.458Z,21.48
2023-02-19T14:07:53.854Z,21.42
2023-02-19T14:10:52.333Z,21.52
2023-02-19T14:13:49.029Z,22.09
2023-02-19T14:16:48.693Z,21.40
2023-02-19T14:19:41.496Z,21.71
2023-02-19T14:22:41.672Z,21.63
2023-02-19T14:25:33.691Z,22.12
2023-02-19T14:28:06.378Z,22.17
2023-02-19T14:30:40.934Z,22.18
2023-02-19T14:33:11.490Z,22.10
2023-02-19T14:35:43.876Z,22.60
2023-02-19T14:38:18.249Z,22.70
2023-02-19T14:40:48.967Z,22.98
2023-02-19T14:43:19.769Z,23.13
2023-02-19T14:45:53.369Z,23.34
2023-02-19T14:48:28.341Z,23.26
2023-02-19T14:51:02.815Z,23.10
2023-02-19T14:53:35.011Z,23.05
2023-02-19T14:56:04.170Z,23.18
2023-02-19T14:58:34.430Z,23.27
2023-02-19T15:01:01.509Z,23.17
2023-02-19T15:03:32.880Z,23.26
2023-02-19T15:06:05.373Z,23.21
2023-02-19T15:08:37.849Z,23.26
2023-02-19T15:11:12.148Z,22.80
2023-02-19T15:13:40.640Z,22.36
2023-02-19T15:16:08.004Z,22.05
2023-02-19T15:18:35.626Z,21.86
2023-02-19T15:21:04.948Z,21.68
2023-02-19T15:23:34.932Z,21.45
2023-02-19T15:26:02.979Z,21.30
2023-02-19T15:28:34.314Z,21.11
2023-02-19T15:31:14.201Z,21.05
2023-02-19T15:33:49.819Z,21.02
2023-02-19T15:36:26.326Z,20.95
2023-02-19T15:38:58.056Z,20.91
2023-02-19T15:41:28.720Z,20.88
2023-02-19T15:44:10.895Z,20.82
2023-02-19T15:46:40.116Z,20.59
2023-02-19T15:49:16.497Z,20.79
2023-02-19T15:51:51.096Z,20.78
2023-02-19T15:54:27.627Z,20.77
2023-02-19T15:57:01.217Z,20.72
2023-02-19T15:59:40.398Z,20.77
2023-02-19T16:02:13.895Z,20.49
2023-02-19T16:04:44.485Z,20.44
2023-02-19T16:07:24.683Z,20.40
2023-02-19T16:10:18.161Z,20.40
2023-02-19T16:12:55.434Z,20.42
2023-02-19T16:15:24.597Z,20.37
2023-02-19T16:17:52.265Z,20.37
2023-02-19T16:20:26.818Z,20.41
2023-02-19T16:23:01.800Z,20.26
2023-02-19T16:25:36.839Z,20.24
2023-02-19T16:28:12.695Z,19.58
2023-02-19T16:30:42.458Z,19.70
2023-02-19T16:33:36.999Z,19.82
2023-02-19T16:36:23.259Z,19.72
2023-02-19T16:39:25.918Z,19.66
2023-02-19T16:42:17.064Z,19.46
2023-02-19T16:44:45.672Z,19.53
2023-02-19T16:47:33.048Z,19.54
2023-02-19T16:50:04.040Z,19.40
2023-02-19T16:52:31.417Z,19.36
2023-02-19T16:54:58.619Z,19.27
2023-02-19T16:57:25.874Z,19.22
2023-02-19T16:59:53.308Z,18.85
2023-02-19T17:02:24.558Z,18.88
2023-02-19T17:04:53.615Z,18.66
2023-02-19T17:07:21.854Z,18.51
2023-02-19T17:09:49.037Z,18.67
2023-02-19T17:12:17.294Z,18.36
2023-02-19T17:14:44.976Z,18.46
2023-02-19T17:17:12.223Z,18.49
2023-02-19T17:19:39.433Z,18.41
2023-02-19T17:22:08.694Z,18.40
2023-02-19T17:24:35.896Z,18.37
2023-02-19T17:27:03.333Z,18.33
2023-02-19T17:29:30.714Z,18.20
2023-02-19T17:31:57.926Z,18.14
2023-02-19T17:34:25.360Z,17.99
2023-02-19T17:36:52.533Z,17.96
2023-02-19T17:39:21.333Z,17.96
2023-02-19T17:41:48.495Z,17.89
2023-02-19T17:44:16.293Z,17.81
2023-02-19T17:46:45.976Z,17.80
2023-02-19T17:49:13.484Z,17.89
2023-02-19T17:51:40.588Z,17.77
2023-02-19T17:54:08.476Z,17.76
2023-02-19T17:56:37.296Z,17.88
2023-02-19T17:59:04.496Z,17.74
2023-02-19T18:01:31.919Z,17.76
2023-02-19T18:03:59.237Z,17.55
2023-02-19T18:06:26.454Z,17.58
2023-02-19T18:08:54.175Z,17.66
2023-02-19T18:11:23.039Z,17.76
2023-02-19T18:13:52.702Z,17.74
2023-02-19T18:16:20.325Z,17.74
2023-02-19T18:18:47.554Z,17.75
2023-02-19T18:21:15.414Z,17.69
2023-02-19T18:23:42.900Z,17.46
2023-02-19T18:26:11.329Z,17.57
2023-02-19T18:28:39.058Z,17.60
2023-02-19T18:31:08.330Z,17.55
2023-02-19T18:33:40.979Z,17.50
2023-02-19T18:36:10.717Z,17.46
2023-02-19T18:38:41.834Z,17.36
2023-02-19T18:41:11.906Z,17.32
2023-02-19T18:43:40.783Z,17.30
2023-02-19T18:46:10.211Z,17.28
2023-02-19T18:48:37.850Z,17.28
2023-02-19T18:51:05.860Z,17.00
2023-02-19T18:53:33.855Z,16.97
2023-02-19T18:56:01.133Z,17.11
2023-02-19T18:58:28.487Z,17.19
2023-02-19T19:00:55.826Z,17.08
2023-02-19T19:03:24.534Z,17.12
2023-02-19T19:05:51.779Z,17.03
2023-02-19T19:08:19.036Z,17.23
2023-02-19T19:10:46.316Z,17.26
2023-02-19T19:13:13.698Z,17.17
2023-02-19T19:15:40.935Z,17.14
2023-02-19T19:18:08.490Z,17.14
2023-02-19T19:20:37.202Z,17.00
2023-02-19T19:23:04.377Z,16.89
2023-02-19T19:25:31.597Z,16.91
2023-02-19T19:27:58.903Z,16.95
2023-02-19T19:30:26.198Z,17.02
2023-02-19T19:32:53.913Z,16.89
2023-02-19T19:35:22.421Z,16.79
2023-02-19T19:37:51.460Z,16.75
2023-02-19T19:40:19.816Z,16.74
2023-02-19T19:42:47.701Z,16.67
2023-02-19T19:45:15.727Z,16.73
2023-02-19T19:47:43.090Z,16.76
2023-02-19T19:50:11.203Z,16.75
2023-02-19T19:52:38.496Z,16.74
2023-02-19T19:55:08.142Z,16.75
2023-02-19T19:57:35.401Z,16.80
2023-02-19T20:00:03.224Z,16.72
2023-02-19T20:02:30.525Z,16.68
2023-02-19T20:04:57.698Z,16.60
2023-02-19T20:07:24.819Z,16.42
2023-02-19T20:09:52.115Z,16.50
2023-02-19T20:12:20.794Z,16.38
2023-02-19T20:14:47.963Z,16.36
2023-02-19T20:17:15.795Z,16.33
2023-02-19T20:19:43.123Z,16.37
2023-02-19T20:22:10.337Z,16.29
2023-02-19T20:24:37.794Z,16.26
2023-02-19T20:27:05.315Z,16.31
2023-02-19T20:29:35.002Z,16.30
2023-02-19T20:32:02.760Z,16.24
2023-02-19T20:34:31.111Z,16.32
2023-02-19T20:36:59.213Z,16.32
2023-02-19T20:39:27.033Z,16.35
2023-02-19T20:41:54.573Z,16.29
2023-02-19T20:44:21.820Z,16.30
2023-02-19T20:46:52.777Z,16.29
2023-02-19T20:49:22.067Z,16.11
2023-02-19T20:51:51.312Z,16.23
2023-02-19T20:54:19.937Z,16.23
2023-02-19T20:57:06.503Z,16.20
2023-02-19T20:59:54.968Z,16.19
2023-02-19T21:02:29.042Z,16.25
2023-02-19T21:04:57.463Z,16.26
2023-02-19T21:07:26.092Z,16.28
2023-02-19T21:10:20.847Z,16.25
2023-02-19T21:13:33.631Z,16.31
2023-02-19T21:16:02.956Z,16.31
2023-02-19T21:18:31.717Z,16.29
2023-02-19T21:20:59.523Z,16.26
2023-02-19T21:23:27.033Z,16.17
2023-02-19T21:25:54.761Z,16.12
2023-02-19T21:28:22.035Z,16.11
2023-02-19T21:30:49.917Z,16.13
2023-02-19T21:33:17.801Z,16.00
2023-02-19T21:35:46.797Z,15.91
2023-02-19T21:38:18.959Z,15.89
2023-02-19T21:40:46.373Z,15.83
2023-02-19T21:43:13.594Z,15.87
2023-02-19T21:45:40.818Z,15.88
2023-02-19T21:48:09.375Z,15.91
2023-02-19T21:50:36.554Z,15.89
2023-02-19T21:53:05.354Z,15.85
2023-02-19T21:55:32.672Z,15.73
2023-02-19T21:57:59.751Z,15.54
2023-02-19T22:00:26.891Z,15.71
2023-02-19T22:02:54.037Z,15.71
2023-02-19T22:05:21.194Z,15.75
2023-02-19T22:07:48.434Z,15.74
2023-02-19T22:10:17.312Z,15.78
2023-02-19T22:12:44.673Z,15.78
2023-02-19T22:15:11.794Z,15.61
2023-02-19T22:17:39.270Z,15.64
2023-02-19T22:20:08.115Z,15.65
2023-02-19T22:22:35.191Z,15.70
2023-02-19T22:25:02.397Z,15.75
2023-02-19T22:27:31.034Z,15.68
2023-02-19T22:29:58.188Z,15.61
2023-02-19T22:32:25.468Z,15.70
2023-02-19T22:34:52.809Z,15.74
2023-02-19T22:37:20.250Z,15.82
2023-02-19T22:39:47.587Z,15.87
2023-02-19T22:42:15.046Z,15.77
2023-02-19T22:44:44.533Z,15.82
2023-02-19T22:47:11.747Z,15.79
2023-02-19T22:49:39.653Z,15.80
2023-02-19T22:52:09.933Z,15.82
2023-02-19T22:54:37.505Z,15.82
2023-02-19T22:57:05.287Z,15.84
2023-02-19T22:59:32.730Z,15.87
2023-02-19T23:02:01.481Z,15.90
2023-02-19T23:04:28.664Z,15.82
2023-02-19T23:06:55.831Z,15.77
2023-02-19T23:09:25.856Z,15.75
2023-02-19T23:11:53.862Z,15.78
2023-02-19T23:14:22.359Z,15.79
2023-02-19T23:16:49.597Z,15.71
2023-02-19T23:19:18.398Z,15.71
2023-02-19T23:21:45.975Z,15.68
2023-02-19T23:24:14.782Z,15.75
2023-02-19T23:26:43.558Z,15.64
2023-02-19T23:29:11.021Z,15.78
2023-02-19T23:31:38.332Z,15.81
2023-02-19T23:34:05.635Z,15.85
2023-02-19T23:36:34.340Z,15.91
2023-02-19T23:39:01.494Z,15.84
2023-02-19T23:41:28.950Z,15.76
2023-02-19T23:43:56.073Z,15.73
2023-02-19T23:46:23.162Z,15.76
2023-02-19T23:48:50.249Z,15.72
2023-02-19T23:51:17.389Z,15.75
2023-02-19T23:53:46.009Z,15.71
2023-02-19T23:56:13.417Z,15.71
2023-02-19T23:58:40.969Z,15.64
